sensor_id;sensor_type;location;lat;lon;timestamp;pressure;altitude;pressure_sealevel;temperature;humidity
53758;BME280;39674;59.860;30.672;2022-07-17T00:02:07;100863.78;;;10.46;85.46
53758;BME280;39674;59.860;30.672;2022-07-17T00:06:45;100830.31;;;10.27;85.70
53758;BME280;39674;59.860;30.672;2022-07-17T00:08:44;100824.72;;;10.16;85.61
53758;BME280;39674;59.860;30.672;2022-07-17T00:11:58;100871.00;;;10.42;85.98
53758;BME280;39674;59.860;30.672;2022-07-17T00:15:05;100818.44;;;9.99;86.39
53758;BME280;39674;59.860;30.672;2022-07-17T00:17:56;100936.53;;;10.70;85.17
53758;BME280;39674;59.860;30.672;2022-07-17T00:21:03;100938.25;;;10.71;86.44
53758;BME280;39674;59.860;30.672;2022-07-17T00:24:22;100894.84;;;10.40;86.08
53758;BME280;39674;59.860;30.672;2022-07-17T00:27:38;100863.22;;;10.20;85.95
53758;BME280;39674;59.860;30.672;2022-07-17T00:30:33;100875.66;;;10.18;85.94
53758;BME280;39674;59.860;30.672;2022-07-17T00:33:18;100868.94;;;10.10;84.49
53758;BME280;39674;59.860;30.672;2022-07-17T00:36:21;100941.56;;;10.57;85.79
53758;BME280;39674;59.860;30.672;2022-07-17T00:39:16;100824.22;;;9.69;85.95
53758;BME280;39674;59.860;30.672;2022-07-17T00:42:16;100836.28;;;9.75;86.06
53758;BME280;39674;59.860;30.672;2022-07-17T00:45:37;100818.88;;;9.71;86.12
53758;BME280;39674;59.860;30.672;2022-07-17T00:48:16;100825.78;;;9.73;85.21
53758;BME280;39674;59.860;30.672;2022-07-17T00:51:38;100864.25;;;9.98;84.30
53758;BME280;39674;59.860;30.672;2022-07-17T00:54:42;100887.56;;;10.07;85.47
53758;BME280;39674;59.860;30.672;2022-07-17T00:57:49;100943.44;;;10.36;85.24
53758;BME280;39674;59.860;30.672;2022-07-17T01:00:36;100818.72;;;9.55;86.47
53758;BME280;39674;59.860;30.672;2022-07-17T01:03:25;100811.63;;;9.57;86.36
53758;BME280;39674;59.860;30.672;2022-07-17T01:06:17;100937.88;;;10.42;85.59
53758;BME280;39674;59.860;30.672;2022-07-17T01:09:10;100941.13;;;10.28;86.88
53758;BME280;39674;59.860;30.672;2022-07-17T01:15:02;100836.38;;;9.53;86.57
53758;BME280;39674;59.860;30.672;2022-07-17T01:17:41;100887.06;;;9.80;85.12
53758;BME280;39674;59.860;30.672;2022-07-17T01:23:58;100813.72;;;9.48;86.13
53758;BME280;39674;59.860;30.672;2022-07-17T01:26:45;100945.03;;;10.20;85.77
53758;BME280;39674;59.860;30.672;2022-07-17T01:29:35;100936.50;;;10.15;84.85
53758;BME280;39674;59.860;30.672;2022-07-17T01:35:55;100888.59;;;9.84;86.88
53758;BME280;39674;59.860;30.672;2022-07-17T01:38:39;100810.59;;;9.40;86.94
53758;BME280;39674;59.860;30.672;2022-07-17T01:41:27;100837.97;;;9.57;86.34
53758;BME280;39674;59.860;30.672;2022-07-17T01:44:05;100802.75;;;9.39;85.44
53758;BME280;39674;59.860;30.672;2022-07-17T01:47:06;100826.13;;;9.46;86.09
53758;BME280;39674;59.860;30.672;2022-07-17T01:50:03;100806.38;;;9.36;85.65
53758;BME280;39674;59.860;30.672;2022-07-17T01:53:05;100814.28;;;9.36;86.69
53758;BME280;39674;59.860;30.672;2022-07-17T01:56:23;100815.44;;;9.50;85.99
53758;BME280;39674;59.860;30.672;2022-07-17T01:59:09;100819.94;;;9.47;86.40
53758;BME280;39674;59.860;30.672;2022-07-17T02:02:01;100792.91;;;9.42;87.93
53758;BME280;39674;59.860;30.672;2022-07-17T02:04:47;100835.78;;;9.67;88.75
53758;BME280;39674;59.860;30.672;2022-07-17T02:07:28;100828.72;;;9.67;89.02
53758;BME280;39674;59.860;30.672;2022-07-17T02:10:23;100817.88;;;9.73;88.12
53758;BME280;39674;59.860;30.672;2022-07-17T02:13:00;100889.47;;;10.23;87.93
53758;BME280;39674;59.860;30.672;2022-07-17T02:15:31;100836.00;;;10.00;88.27
53758;BME280;39674;59.860;30.672;2022-07-17T02:18:26;100874.81;;;10.36;88.99
53758;BME280;39674;59.860;30.672;2022-07-17T02:21:25;100883.34;;;10.41;89.04
53758;BME280;39674;59.860;30.672;2022-07-17T02:24:39;100848.47;;;10.16;89.14
53758;BME280;39674;59.860;30.672;2022-07-17T02:27:26;100891.59;;;10.53;89.02
53758;BME280;39674;59.860;30.672;2022-07-17T02:30:03;100798.41;;;9.95;89.77
53758;BME280;39674;59.860;30.672;2022-07-17T02:32:51;100870.28;;;10.38;90.35
53758;BME280;39674;59.860;30.672;2022-07-17T02:35:30;100858.97;;;10.36;91.18
53758;BME280;39674;59.860;30.672;2022-07-17T02:38:49;100801.38;;;10.06;89.97
53758;BME280;39674;59.860;30.672;2022-07-17T02:41:33;100878.59;;;10.67;91.74
53758;BME280;39674;59.860;30.672;2022-07-17T02:44:04;100871.59;;;10.66;90.39
53758;BME280;39674;59.860;30.672;2022-07-17T02:46:43;100792.75;;;10.22;90.51
53758;BME280;39674;59.860;30.672;2022-07-17T02:49:18;100929.59;;;11.04;90.56
53758;BME280;39674;59.860;30.672;2022-07-17T02:52:01;100883.69;;;10.70;90.85
53758;BME280;39674;59.860;30.672;2022-07-17T02:54:36;100881.72;;;10.75;91.04
53758;BME280;39674;59.860;30.672;2022-07-17T02:57:09;100887.44;;;10.84;90.39
53758;BME280;39674;59.860;30.672;2022-07-17T02:59:50;100923.16;;;11.10;90.72
53758;BME280;39674;59.860;30.672;2022-07-17T03:02:39;100868.41;;;10.77;89.95
53758;BME280;39674;59.860;30.672;2022-07-17T03:05:19;100924.00;;;11.11;90.22
53758;BME280;39674;59.860;30.672;2022-07-17T03:08:39;100908.75;;;10.98;90.29
53758;BME280;39674;59.860;30.672;2022-07-17T03:11:01;100872.56;;;10.83;90.20
53758;BME280;39674;59.860;30.672;2022-07-17T03:13:39;100891.19;;;10.97;90.13
53758;BME280;39674;59.860;30.672;2022-07-17T03:16:39;100889.19;;;11.02;89.91
53758;BME280;39674;59.860;30.672;2022-07-17T03:19:29;100862.91;;;10.99;89.84
53758;BME280;39674;59.860;30.672;2022-07-17T03:22:46;100884.97;;;11.16;89.74
53758;BME280;39674;59.860;30.672;2022-07-17T03:25:29;100837.09;;;10.87;89.50
53758;BME280;39674;59.860;30.672;2022-07-17T03:28:06;100857.72;;;10.98;89.95
53758;BME280;39674;59.860;30.672;2022-07-17T03:30:37;100803.31;;;10.58;90.19
53758;BME280;39674;59.860;30.672;2022-07-17T03:33:14;100881.56;;;11.14;90.20
53758;BME280;39674;59.860;30.672;2022-07-17T03:35:48;100855.59;;;11.04;90.67
53758;BME280;39674;59.860;30.672;2022-07-17T03:41:53;100888.69;;;11.47;89.86
53758;BME280;39674;59.860;30.672;2022-07-17T03:44:58;100881.19;;;11.55;89.85
53758;BME280;39674;59.860;30.672;2022-07-17T03:51:09;100938.81;;;11.83;90.06
53758;BME280;39674;59.860;30.672;2022-07-17T03:54:30;100899.69;;;11.55;89.64
53758;BME280;39674;59.860;30.672;2022-07-17T03:57:09;100828.59;;;11.15;90.14
53758;BME280;39674;59.860;30.672;2022-07-17T04:00:10;100876.34;;;11.63;89.28
53758;BME280;39674;59.860;30.672;2022-07-17T04:04:03;100934.09;;;12.22;88.98
53758;BME280;39674;59.860;30.672;2022-07-17T04:06:12;100825.75;;;11.69;88.51
53758;BME280;39674;59.860;30.672;2022-07-17T04:09:23;100818.25;;;11.78;87.62
53758;BME280;39674;59.860;30.672;2022-07-17T04:12:34;100874.41;;;12.32;88.03
53758;BME280;39674;59.860;30.672;2022-07-17T04:16:04;100872.25;;;12.39;87.30
53758;BME280;39674;59.860;30.672;2022-07-17T04:19:50;100804.94;;;12.11;86.88
53758;BME280;39674;59.860;30.672;2022-07-17T04:21:44;100813.84;;;12.26;86.52
53758;BME280;39674;59.860;30.672;2022-07-17T04:24:44;100919.31;;;13.12;86.90
53758;BME280;39674;59.860;30.672;2022-07-17T04:30:45;100803.91;;;12.60;85.48
53758;BME280;39674;59.860;30.672;2022-07-17T04:33:53;100930.22;;;13.53;85.09
53758;BME280;39674;59.860;30.672;2022-07-17T04:36:42;100852.38;;;13.23;85.03
53758;BME280;39674;59.860;30.672;2022-07-17T04:39:24;100803.00;;;13.06;84.63
53758;BME280;39674;59.860;30.672;2022-07-17T04:42:28;100874.03;;;13.75;83.00
53758;BME280;39674;59.860;30.672;2022-07-17T04:48:51;100925.66;;;14.12;81.85
53758;BME280;39674;59.860;30.672;2022-07-17T04:51:41;100871.09;;;13.79;82.82
53758;BME280;39674;59.860;30.672;2022-07-17T04:54:35;100874.19;;;13.72;82.66
53758;BME280;39674;59.860;30.672;2022-07-17T04:57:50;100876.00;;;13.86;82.60
53758;BME280;39674;59.860;30.672;2022-07-17T05:00:25;100848.31;;;13.75;82.74
53758;BME280;39674;59.860;30.672;2022-07-17T05:03:56;100936.53;;;14.37;82.36
53758;BME280;39674;59.860;30.672;2022-07-17T05:06:51;100795.69;;;13.82;82.20
53758;BME280;39674;59.860;30.672;2022-07-17T05:09:27;100854.31;;;14.21;81.38
53758;BME280;39674;59.860;30.672;2022-07-17T05:12:16;100924.09;;;14.79;81.11
53758;BME280;39674;59.860;30.672;2022-07-17T05:15:00;100883.22;;;14.67;80.43
53758;BME280;39674;59.860;30.672;2022-07-17T05:18:07;100860.47;;;14.76;78.89
53758;BME280;39674;59.860;30.672;2022-07-17T05:21:14;100874.59;;;15.04;78.49
53758;BME280;39674;59.860;30.672;2022-07-17T05:24:04;100882.41;;;15.33;78.75
53758;BME280;39674;59.860;30.672;2022-07-17T05:30:15;100897.28;;;15.74;77.44
53758;BME280;39674;59.860;30.672;2022-07-17T05:33:31;100917.63;;;16.14;78.16
53758;BME280;39674;59.860;30.672;2022-07-17T05:36:31;100918.16;;;16.43;77.72
53758;BME280;39674;59.860;30.672;2022-07-17T05:39:08;100875.22;;;16.59;76.56
53758;BME280;39674;59.860;30.672;2022-07-17T05:41:40;100849.94;;;16.41;74.83
53758;BME280;39674;59.860;30.672;2022-07-17T05:44:29;100868.63;;;16.76;75.05
53758;BME280;39674;59.860;30.672;2022-07-17T05:47:15;100880.09;;;16.90;73.23
53758;BME280;39674;59.860;30.672;2022-07-17T05:49:55;100876.72;;;16.99;72.51
53758;BME280;39674;59.860;30.672;2022-07-17T05:53:07;100853.34;;;16.78;71.57
53758;BME280;39674;59.860;30.672;2022-07-17T05:56:00;100878.44;;;17.00;73.73
53758;BME280;39674;59.860;30.672;2022-07-17T05:58:41;100847.19;;;17.13;72.78
53758;BME280;39674;59.860;30.672;2022-07-17T06:01:36;100877.56;;;17.58;71.54
53758;BME280;39674;59.860;30.672;2022-07-17T06:05:08;100879.53;;;17.67;69.58
53758;BME280;39674;59.860;30.672;2022-07-17T06:11:08;100912.69;;;17.99;71.26
53758;BME280;39674;59.860;30.672;2022-07-17T06:14:39;100873.19;;;17.91;68.90
53758;BME280;39674;59.860;30.672;2022-07-17T06:18:06;100879.25;;;17.59;69.02
53758;BME280;39674;59.860;30.672;2022-07-17T06:21:51;100835.19;;;17.53;69.17
53758;BME280;39674;59.860;30.672;2022-07-17T06:28:20;100869.91;;;18.21;67.26
53758;BME280;39674;59.860;30.672;2022-07-17T06:31:13;100828.72;;;18.12;66.24
53758;BME280;39674;59.860;30.672;2022-07-17T06:34:02;100855.97;;;18.39;67.87
53758;BME280;39674;59.860;30.672;2022-07-17T06:39:45;100840.41;;;18.44;65.17
53758;BME280;39674;59.860;30.672;2022-07-17T06:42:54;100885.03;;;18.43;64.30
53758;BME280;39674;59.860;30.672;2022-07-17T06:46:13;100857.72;;;18.61;65.37
53758;BME280;39674;59.860;30.672;2022-07-17T06:48:50;100852.00;;;18.87;64.92
53758;BME280;39674;59.860;30.672;2022-07-17T06:54:45;100902.47;;;19.24;64.70
53758;BME280;39674;59.860;30.672;2022-07-17T06:57:46;100912.44;;;19.22;63.58
53758;BME280;39674;59.860;30.672;2022-07-17T07:00:29;100870.00;;;18.64;62.69
53758;BME280;39674;59.860;30.672;2022-07-17T07:03:16;100849.88;;;17.93;62.96
53758;BME280;39674;59.860;30.672;2022-07-17T07:05:47;100918.41;;;18.05;65.14
53758;BME280;39674;59.860;30.672;2022-07-17T07:08:30;100820.50;;;17.13;66.13
53758;BME280;39674;59.860;30.672;2022-07-17T07:11:08;100816.00;;;16.78;66.12
53758;BME280;39674;59.860;30.672;2022-07-17T07:14:14;100911.03;;;17.28;66.79
53758;BME280;39674;59.860;30.672;2022-07-17T07:17:06;100860.81;;;17.44;66.15
53758;BME280;39674;59.860;30.672;2022-07-17T07:19:54;100820.53;;;17.47;64.24
53758;BME280;39674;59.860;30.672;2022-07-17T07:23:22;100807.88;;;17.38;64.46
53758;BME280;39674;59.860;30.672;2022-07-17T07:25:41;100908.47;;;18.51;64.02
53758;BME280;39674;59.860;30.672;2022-07-17T07:31:40;100801.41;;;17.98;60.42
53758;BME280;39674;59.860;30.672;2022-07-17T07:34:17;100857.63;;;18.19;61.21
53758;BME280;39674;59.860;30.672;2022-07-17T07:36:55;100865.31;;;17.89;60.43
53758;BME280;39674;59.860;30.672;2022-07-17T07:39:29;100864.94;;;18.05;63.16
53758;BME280;39674;59.860;30.672;2022-07-17T07:42:03;100900.03;;;18.12;60.44
53758;BME280;39674;59.860;30.672;2022-07-17T07:44:53;100865.66;;;17.62;62.65
53758;BME280;39674;59.860;30.672;2022-07-17T07:48:01;100842.09;;;17.56;60.79
53758;BME280;39674;59.860;30.672;2022-07-17T07:50:52;100833.84;;;18.04;61.25
53758;BME280;39674;59.860;30.672;2022-07-17T07:53:31;100903.31;;;19.03;58.85
53758;BME280;39674;59.860;30.672;2022-07-17T07:56:36;100859.38;;;19.06;57.32
53758;BME280;39674;59.860;30.672;2022-07-17T08:02:46;100893.22;;;20.41;55.71
53758;BME280;39674;59.860;30.672;2022-07-17T08:05:58;100856.41;;;19.92;54.35
53758;BME280;39674;59.860;30.672;2022-07-17T08:16:16;100809.28;;;16.97;70.51
53758;BME280;39674;59.860;30.672;2022-07-17T08:18:48;100875.03;;;16.98;72.77
53758;BME280;39674;59.860;30.672;2022-07-17T08:21:17;100876.63;;;16.76;74.86
53758;BME280;39674;59.860;30.672;2022-07-17T08:23:54;100877.97;;;17.06;78.75
53758;BME280;39674;59.860;30.672;2022-07-17T08:26:23;100889.94;;;17.59;76.70
53758;BME280;39674;59.860;30.672;2022-07-17T08:28:52;100803.28;;;17.74;77.53
53758;BME280;39674;59.860;30.672;2022-07-17T08:31:30;100859.56;;;18.93;80.41
53758;BME280;39674;59.860;30.672;2022-07-17T08:34:04;100871.53;;;19.62;73.69
53758;BME280;39674;59.860;30.672;2022-07-17T08:36:55;100853.06;;;20.10;66.30
53758;BME280;39674;59.860;30.672;2022-07-17T08:39:34;100857.75;;;19.77;62.80
53758;BME280;39674;59.860;30.672;2022-07-17T08:42:17;100791.34;;;19.39;63.88
53758;BME280;39674;59.860;30.672;2022-07-17T08:44:52;100866.28;;;19.61;64.92
53758;BME280;39674;59.860;30.672;2022-07-17T08:47:33;100795.75;;;18.77;66.22
53758;BME280;39674;59.860;30.672;2022-07-17T08:50:05;100860.31;;;19.26;66.72
53758;BME280;39674;59.860;30.672;2022-07-17T08:52:48;100863.03;;;19.57;64.22
53758;BME280;39674;59.860;30.672;2022-07-17T08:55:26;100905.28;;;20.06;60.50
53758;BME280;39674;59.860;30.672;2022-07-17T08:58:17;100853.66;;;20.23;59.58
53758;BME280;39674;59.860;30.672;2022-07-17T09:01:00;100790.69;;;19.88;56.63
53758;BME280;39674;59.860;30.672;2022-07-17T09:03:36;100894.25;;;19.99;55.49
53758;BME280;39674;59.860;30.672;2022-07-17T09:06:27;100874.75;;;19.56;56.98
53758;BME280;39674;59.860;30.672;2022-07-17T09:09:09;100893.75;;;19.53;58.42
53758;BME280;39674;59.860;30.672;2022-07-17T09:11:52;100890.44;;;19.18;56.46
53758;BME280;39674;59.860;30.672;2022-07-17T09:14:54;100791.88;;;18.27;59.36
53758;BME280;39674;59.860;30.672;2022-07-17T09:17:32;100807.13;;;18.04;56.86
53758;BME280;39674;59.860;30.672;2022-07-17T09:20:13;100890.63;;;18.40;59.54
53758;BME280;39674;59.860;30.672;2022-07-17T09:22:56;100867.59;;;18.82;59.97
53758;BME280;39674;59.860;30.672;2022-07-17T09:25:45;100849.44;;;19.18;59.02
53758;BME280;39674;59.860;30.672;2022-07-17T09:28:15;100841.53;;;19.37;56.62
53758;BME280;39674;59.860;30.672;2022-07-17T09:30:53;100848.31;;;19.42;55.57
53758;BME280;39674;59.860;30.672;2022-07-17T09:33:26;100768.75;;;18.80;56.19
53758;BME280;39674;59.860;30.672;2022-07-17T09:36:13;100852.97;;;19.18;53.74
53758;BME280;39674;59.860;30.672;2022-07-17T09:39:28;100824.44;;;19.07;53.67
53758;BME280;39674;59.860;30.672;2022-07-17T09:42:44;100854.13;;;19.26;52.74
53758;BME280;39674;59.860;30.672;2022-07-17T09:46:09;100836.72;;;19.41;52.16
53758;BME280;39674;59.860;30.672;2022-07-17T09:49:06;100765.53;;;19.07;53.92
53758;BME280;39674;59.860;30.672;2022-07-17T09:52:36;100762.97;;;19.78;53.38
53758;BME280;39674;59.860;30.672;2022-07-17T09:56:10;100877.19;;;20.90;52.47
53758;BME280;39674;59.860;30.672;2022-07-17T09:59:12;100812.19;;;20.27;51.05
53758;BME280;39674;59.860;30.672;2022-07-17T10:02:05;100829.97;;;19.78;50.93
53758;BME280;39674;59.860;30.672;2022-07-17T10:05:20;100828.63;;;19.93;53.68
53758;BME280;39674;59.860;30.672;2022-07-17T10:08:23;100880.50;;;20.52;56.19
53758;BME280;39674;59.860;30.672;2022-07-17T10:11:00;100827.88;;;20.42;53.34
53758;BME280;39674;59.860;30.672;2022-07-17T10:13:46;100836.59;;;20.63;52.63
53758;BME280;39674;59.860;30.672;2022-07-17T10:16:29;100846.09;;;20.87;54.31
53758;BME280;39674;59.860;30.672;2022-07-17T10:19:18;100855.13;;;20.86;54.58
53758;BME280;39674;59.860;30.672;2022-07-17T10:21:56;100830.56;;;20.51;54.27
53758;BME280;39674;59.860;30.672;2022-07-17T10:24:43;100843.16;;;19.91;52.16
53758;BME280;39674;59.860;30.672;2022-07-17T10:28:03;100822.53;;;19.19;53.62
53758;BME280;39674;59.860;30.672;2022-07-17T10:31:07;100907.28;;;19.09;56.76
53758;BME280;39674;59.860;30.672;2022-07-17T10:42:13;100816.38;;;17.66;59.92
53758;BME280;39674;59.860;30.672;2022-07-17T10:45:12;100883.91;;;18.14;59.72
53758;BME280;39674;59.860;30.672;2022-07-17T10:48:12;100886.91;;;18.64;60.08
53758;BME280;39674;59.860;30.672;2022-07-17T10:54:32;100882.63;;;18.73;57.39
53758;BME280;39674;59.860;30.672;2022-07-17T10:57:39;100879.22;;;18.27;59.31
53758;BME280;39674;59.860;30.672;2022-07-17T11:01:04;100799.25;;;17.80;59.99
53758;BME280;39674;59.860;30.672;2022-07-17T11:04:23;100934.84;;;18.56;60.01
53758;BME280;39674;59.860;30.672;2022-07-17T11:07:21;100865.19;;;18.14;58.97
53758;BME280;39674;59.860;30.672;2022-07-17T11:10:49;100857.38;;;17.88;58.65
53758;BME280;39674;59.860;30.672;2022-07-17T11:13:26;100905.00;;;17.83;60.83
53758;BME280;39674;59.860;30.672;2022-07-17T11:16:28;100955.66;;;18.18;60.95
53758;BME280;39674;59.860;30.672;2022-07-17T11:19:39;100888.41;;;18.02;59.39
53758;BME280;39674;59.860;30.672;2022-07-17T11:22:22;100932.84;;;18.69;59.26
53758;BME280;39674;59.860;30.672;2022-07-17T11:25:32;100904.56;;;18.55;58.24
53758;BME280;39674;59.860;30.672;2022-07-17T11:28:36;100816.16;;;18.36;59.14
53758;BME280;39674;59.860;30.672;2022-07-17T11:31:54;100824.66;;;18.62;57.76
53758;BME280;39674;59.860;30.672;2022-07-17T11:34:35;100932.16;;;19.00;60.14
53758;BME280;39674;59.860;30.672;2022-07-17T11:37:31;100804.19;;;18.07;58.83
53758;BME280;39674;59.860;30.672;2022-07-17T11:40:30;100822.19;;;17.71;58.42
53758;BME280;39674;59.860;30.672;2022-07-17T11:43:49;100828.75;;;17.44;60.23
53758;BME280;39674;59.860;30.672;2022-07-17T11:46:58;100871.03;;;17.96;60.77
53758;BME280;39674;59.860;30.672;2022-07-17T11:49:48;100932.44;;;18.41;59.51
53758;BME280;39674;59.860;30.672;2022-07-17T11:53:00;100864.94;;;18.05;60.55
53758;BME280;39674;59.860;30.672;2022-07-17T11:55:59;100887.03;;;18.19;61.04
53758;BME280;39674;59.860;30.672;2022-07-17T12:02:16;100896.28;;;18.03;60.08
53758;BME280;39674;59.860;30.672;2022-07-17T12:05:10;100945.59;;;18.10;60.15
53758;BME280;39674;59.860;30.672;2022-07-17T12:07:50;100894.56;;;17.57;60.37
53758;BME280;39674;59.860;30.672;2022-07-17T12:10:39;100896.50;;;17.55;63.35
53758;BME280;39674;59.860;30.672;2022-07-17T12:13:54;100933.19;;;17.87;62.05
53758;BME280;39674;59.860;30.672;2022-07-17T12:17:36;100886.53;;;17.45;63.49
53758;BME280;39674;59.860;30.672;2022-07-17T12:20:29;100819.03;;;17.09;65.50
53758;BME280;39674;59.860;30.672;2022-07-17T12:23:39;100919.59;;;17.78;65.70
53758;BME280;39674;59.860;30.672;2022-07-17T12:36:03;100882.63;;;17.38;65.63
53758;BME280;39674;59.860;30.672;2022-07-17T12:38:39;100804.50;;;16.78;66.45
53758;BME280;39674;59.860;30.672;2022-07-17T12:41:28;100923.44;;;17.52;66.61
53758;BME280;39674;59.860;30.672;2022-07-17T12:44:35;100869.78;;;17.32;67.88
53758;BME280;39674;59.860;30.672;2022-07-17T12:47:43;100868.56;;;17.36;67.84
53758;BME280;39674;59.860;30.672;2022-07-17T12:50:40;100839.91;;;17.15;67.54
53758;BME280;39674;59.860;30.672;2022-07-17T12:53:36;100804.03;;;16.84;68.46
53758;BME280;39674;59.860;30.672;2022-07-17T12:57:13;100869.78;;;17.43;69.01
53758;BME280;39674;59.860;30.672;2022-07-17T13:03:13;100893.56;;;17.35;66.81
53758;BME280;39674;59.860;30.672;2022-07-17T13:06:52;100873.03;;;17.24;66.55
53758;BME280;39674;59.860;30.672;2022-07-17T13:10:21;100878.03;;;17.29;66.09
53758;BME280;39674;59.860;30.672;2022-07-17T13:13:32;100792.13;;;16.77;66.34
53758;BME280;39674;59.860;30.672;2022-07-17T13:20:20;100877.97;;;17.06;67.14
53758;BME280;39674;59.860;30.672;2022-07-17T13:23:02;100868.41;;;16.91;67.21
53758;BME280;39674;59.860;30.672;2022-07-17T13:29:40;100834.28;;;16.60;67.62
53758;BME280;39674;59.860;30.672;2022-07-17T13:32:23;100854.28;;;16.66;67.43
53758;BME280;39674;59.860;30.672;2022-07-17T13:35:06;100806.88;;;16.34;68.81
53758;BME280;39674;59.860;30.672;2022-07-17T13:37:49;100919.50;;;17.22;69.02
53758;BME280;39674;59.860;30.672;2022-07-17T13:41:09;100921.59;;;17.29;68.15
53758;BME280;39674;59.860;30.672;2022-07-17T13:44:36;100852.63;;;16.76;69.28
53758;BME280;39674;59.860;30.672;2022-07-17T13:48:15;100834.59;;;16.56;69.81
53758;BME280;39674;59.860;30.672;2022-07-17T13:50:51;100932.78;;;17.10;71.86
53758;BME280;39674;59.860;30.672;2022-07-17T13:54:03;100810.03;;;16.39;71.67
53758;BME280;39674;59.860;30.672;2022-07-17T13:56:48;100859.09;;;16.61;72.41
53758;BME280;39674;59.860;30.672;2022-07-17T14:00:55;100862.19;;;16.43;72.84
53758;BME280;39674;59.860;30.672;2022-07-17T14:02:24;100929.34;;;16.73;74.01
53758;BME280;39674;59.860;30.672;2022-07-17T14:05:09;100882.94;;;16.51;75.26
53758;BME280;39674;59.860;30.672;2022-07-17T14:07:57;100882.09;;;16.50;74.75
53758;BME280;39674;59.860;30.672;2022-07-17T14:10:39;100871.81;;;16.57;76.02
53758;BME280;39674;59.860;30.672;2022-07-17T14:13:23;100921.06;;;16.89;74.10
53758;BME280;39674;59.860;30.672;2022-07-17T14:19:16;100945.00;;;17.02;74.51
53758;BME280;39674;59.860;30.672;2022-07-17T14:29:08;100889.75;;;16.31;74.81
53758;BME280;39674;59.860;30.672;2022-07-17T14:32:07;100836.69;;;15.91;74.09
53758;BME280;39674;59.860;30.672;2022-07-17T14:42:04;100817.34;;;15.24;79.88
53758;BME280;39674;59.860;30.672;2022-07-17T14:48:41;100852.56;;;15.28;83.25
53758;BME280;39674;59.860;30.672;2022-07-17T14:51:34;100964.97;;;15.84;83.79
53758;BME280;39674;59.860;30.672;2022-07-17T14:55:11;100973.53;;;15.75;84.39
53758;BME280;39674;59.860;30.672;2022-07-17T15:02:07;100913.53;;;15.18;85.30
53758;BME280;39674;59.860;30.672;2022-07-17T15:09:31;100975.13;;;15.39;85.24
53758;BME280;39674;59.860;30.672;2022-07-17T15:16:43;100849.16;;;14.59;85.98
53758;BME280;39674;59.860;30.672;2022-07-17T15:19:54;100929.91;;;14.99;86.40
53758;BME280;39674;59.860;30.672;2022-07-17T15:23:06;100865.28;;;14.56;87.12
53758;BME280;39674;59.860;30.672;2022-07-17T15:27:11;100930.09;;;14.96;86.80
53758;BME280;39674;59.860;30.672;2022-07-17T15:30:31;100978.28;;;15.18;87.27
53758;BME280;39674;59.860;30.672;2022-07-17T15:36:24;100894.38;;;14.45;89.09
53758;BME280;39674;59.860;30.672;2022-07-17T15:38:58;100865.06;;;14.32;89.65
53758;BME280;39674;59.860;30.672;2022-07-17T15:41:35;100934.09;;;14.75;89.32
53758;BME280;39674;59.860;30.672;2022-07-17T15:44:08;100944.06;;;14.72;89.63
53758;BME280;39674;59.860;30.672;2022-07-17T15:46:54;100914.53;;;14.62;89.02
53758;BME280;39674;59.860;30.672;2022-07-17T15:49:44;100990.22;;;14.98;88.99
53758;BME280;39674;59.860;30.672;2022-07-17T15:52:28;100940.34;;;14.74;89.65
53758;BME280;39674;59.860;30.672;2022-07-17T15:54:59;100867.09;;;14.28;90.14
53758;BME280;39674;59.860;30.672;2022-07-17T15:57:53;100945.56;;;14.76;88.89
53758;BME280;39674;59.860;30.672;2022-07-17T16:00:38;100876.97;;;14.26;89.37
53758;BME280;39674;59.860;30.672;2022-07-17T16:03:09;100991.81;;;15.01;89.32
53758;BME280;39674;59.860;30.672;2022-07-17T16:05:54;100957.31;;;14.86;89.83
53758;BME280;39674;59.860;30.672;2022-07-17T16:08:35;100916.69;;;14.42;89.94
53758;BME280;39674;59.860;30.672;2022-07-17T16:11:31;100933.22;;;14.75;90.05
53758;BME280;39674;59.860;30.672;2022-07-17T16:14:10;100990.31;;;14.97;90.26
53758;BME280;39674;59.860;30.672;2022-07-17T16:17:00;100982.03;;;15.01;90.97
53758;BME280;39674;59.860;30.672;2022-07-17T16:19:37;100874.56;;;14.36;90.84
53758;BME280;39674;59.860;30.672;2022-07-17T16:22:09;100905.56;;;14.50;90.47
53758;BME280;39674;59.860;30.672;2022-07-17T16:24:50;100883.59;;;14.34;91.20
53758;BME280;39674;59.860;30.672;2022-07-17T16:27:48;100908.03;;;14.53;91.04
53758;BME280;39674;59.860;30.672;2022-07-17T16:30:35;100916.19;;;14.50;90.41
53758;BME280;39674;59.860;30.672;2022-07-17T16:33:18;100863.88;;;14.23;91.37
53758;BME280;39674;59.860;30.672;2022-07-17T16:36:02;100937.59;;;14.61;90.48
53758;BME280;39674;59.860;30.672;2022-07-17T16:38:38;100907.66;;;14.45;92.13
53758;BME280;39674;59.860;30.672;2022-07-17T16:41:35;100857.34;;;14.15;91.14
53758;BME280;39674;59.860;30.672;2022-07-17T16:44:21;100862.28;;;14.06;91.38
53758;BME280;39674;59.860;30.672;2022-07-17T16:47:03;100990.19;;;14.85;91.73
53758;BME280;39674;59.860;30.672;2022-07-17T16:49:54;100853.59;;;14.04;92.10
53758;BME280;39674;59.860;30.672;2022-07-17T16:52:46;100997.34;;;14.98;92.56
53758;BME280;39674;59.860;30.672;2022-07-17T16:55:48;100912.22;;;14.43;92.79
53758;BME280;39674;59.860;30.672;2022-07-17T16:58:35;100920.41;;;14.40;92.59
53758;BME280;39674;59.860;30.672;2022-07-17T17:01:32;100938.00;;;14.55;93.18
53758;BME280;39674;59.860;30.672;2022-07-17T17:04:09;100962.84;;;14.69;93.05